Terminal Aerodrome Forecast
Issued by NWS

Home | Current Version | Previous Version | Text Only | Print | Product List | Glossary On
Versions: 1 2 3 4 5 6 7 8 9 10 11 12 13 14 15 16 17
000
FTUS46 KLOX 312349
TAFPRB
TAF
KPRB 312349Z 0100/0124 21008KT P6SM SKC
     FM010400 30010KT P6SM SKC
     FM010900 VRB03KT P6SM FEW004
     FM011200 00000KT 1SM BR VCFG OVC002
     FM011600 VRB03KT P6SM FEW004
     FM012200 20012G18KT P6SM SKC=

USA.gov is the U.S. government's official web portal to all federal, state and local government web resources and services.